sensor_id;sensor_type;location;lat;lon;timestamp;pressure;altitude;pressure_sealevel;temperature;humidity
50592;BME280;36548;50.506;30.834;2023-05-21T00:00:00;100726.56;;;14.57;47.90
50592;BME280;36548;50.506;30.834;2023-05-21T00:01:13;100726.27;;;14.49;48.08
50592;BME280;36548;50.506;30.834;2023-05-21T00:02:24;100718.69;;;14.54;47.96
50592;BME280;36548;50.506;30.834;2023-05-21T00:03:33;100724.51;;;14.61;47.86
50592;BME280;36548;50.506;30.834;2023-05-21T00:04:43;100720.16;;;14.71;47.79
50592;BME280;36548;50.506;30.834;2023-05-21T00:05:53;100727.54;;;14.69;47.48
50592;BME280;36548;50.506;30.834;2023-05-21T00:07:03;100719.02;;;14.62;47.55
50592;BME280;36548;50.506;30.834;2023-05-21T00:08:19;100720.05;;;14.73;47.57
50592;BME280;36548;50.506;30.834;2023-05-21T00:09:28;100726.19;;;14.38;48.05
50592;BME280;36548;50.506;30.834;2023-05-21T00:10:37;100721.67;;;14.38;48.17
50592;BME280;36548;50.506;30.834;2023-05-21T00:11:47;100719.36;;;14.45;48.01
50592;BME280;36548;50.506;30.834;2023-05-21T00:13:02;100720.86;;;14.49;48.10
50592;BME280;36548;50.506;30.834;2023-05-21T00:14:12;100718.66;;;14.30;48.39
50592;BME280;36548;50.506;30.834;2023-05-21T00:15:27;100722.59;;;14.50;48.26
50592;BME280;36548;50.506;30.834;2023-05-21T00:16:36;100719.59;;;14.42;48.19
50592;BME280;36548;50.506;30.834;2023-05-21T00:17:46;100720.79;;;14.38;48.27
50592;BME280;36548;50.506;30.834;2023-05-21T00:19:02;100711.35;;;14.56;48.23
50592;BME280;36548;50.506;30.834;2023-05-21T00:20:12;100723.80;;;14.46;48.07
50592;BME280;36548;50.506;30.834;2023-05-21T00:21:27;100713.82;;;14.59;48.06
50592;BME280;36548;50.506;30.834;2023-05-21T00:22:37;100725.69;;;14.32;48.19
50592;BME280;36548;50.506;30.834;2023-05-21T00:23:47;100728.04;;;14.37;48.16
50592;BME280;36548;50.506;30.834;2023-05-21T00:25:02;100719.89;;;14.50;48.36
50592;BME280;36548;50.506;30.834;2023-05-21T00:26:12;100722.64;;;14.37;48.19
50592;BME280;36548;50.506;30.834;2023-05-21T00:27:28;100723.56;;;14.49;48.29
50592;BME280;36548;50.506;30.834;2023-05-21T00:28:37;100724.14;;;14.41;48.06
50592;BME280;36548;50.506;30.834;2023-05-21T00:29:53;100723.80;;;14.46;48.12
50592;BME280;36548;50.506;30.834;2023-05-21T00:31:02;100729.42;;;14.43;48.11
50592;BME280;36548;50.506;30.834;2023-05-21T00:32:11;100731.90;;;14.46;47.99
50592;BME280;36548;50.506;30.834;2023-05-21T00:33:20;100726.73;;;14.43;47.89
50592;BME280;36548;50.506;30.834;2023-05-21T00:34:30;100720.12;;;14.47;47.93
50592;BME280;36548;50.506;30.834;2023-05-21T00:35:39;100724.92;;;14.30;48.15
50592;BME280;36548;50.506;30.834;2023-05-21T00:36:55;100730.70;;;14.50;48.05
50592;BME280;36548;50.506;30.834;2023-05-21T00:38:05;100724.14;;;14.41;48.03
50592;BME280;36548;50.506;30.834;2023-05-21T00:39:16;100721.09;;;14.46;48.08
50592;BME280;36548;50.506;30.834;2023-05-21T00:40:33;100705.95;;;14.56;47.85
50592;BME280;36548;50.506;30.834;2023-05-21T00:41:44;100713.64;;;14.49;47.74
50592;BME280;36548;50.506;30.834;2023-05-21T00:43:02;100713.94;;;14.58;47.72
50592;BME280;36548;50.506;30.834;2023-05-21T00:44:11;100711.91;;;14.48;47.74
50592;BME280;36548;50.506;30.834;2023-05-21T00:45:27;100705.19;;;14.54;47.81
50592;BME280;36548;50.506;30.834;2023-05-21T00:46:38;100712.88;;;14.47;47.79
50592;BME280;36548;50.506;30.834;2023-05-21T00:47:55;100711.91;;;14.48;47.96
50592;BME280;36548;50.506;30.834;2023-05-21T00:49:05;100719.44;;;14.19;48.32
50592;BME280;36548;50.506;30.834;2023-05-21T00:50:22;100713.81;;;14.22;48.83
50592;BME280;36548;50.506;30.834;2023-05-21T00:51:32;100716.85;;;14.05;49.00
50592;BME280;36548;50.506;30.834;2023-05-21T00:52:47;100711.77;;;14.13;49.02
50592;BME280;36548;50.506;30.834;2023-05-21T00:53:59;100720.44;;;14.05;48.92
50592;BME280;36548;50.506;30.834;2023-05-21T00:55:09;100721.42;;;13.91;49.33
50592;BME280;36548;50.506;30.834;2023-05-21T00:56:19;100716.02;;;13.91;49.37
50592;BME280;36548;50.506;30.834;2023-05-21T00:57:39;100707.70;;;13.94;49.56
50592;BME280;36548;50.506;30.834;2023-05-21T00:58:50;100723.38;;;13.63;50.13
50592;BME280;36548;50.506;30.834;2023-05-21T01:00:06;100715.17;;;13.65;50.46
50592;BME280;36548;50.506;30.834;2023-05-21T01:01:16;100723.33;;;13.38;50.99
50592;BME280;36548;50.506;30.834;2023-05-21T01:02:32;100709.95;;;13.36;51.43
50592;BME280;36548;50.506;30.834;2023-05-21T01:03:43;100716.16;;;13.24;51.38
50592;BME280;36548;50.506;30.834;2023-05-21T01:05:00;100714.50;;;13.36;51.48
50592;BME280;36548;50.506;30.834;2023-05-21T01:06:10;100722.94;;;13.17;51.61
50592;BME280;36548;50.506;30.834;2023-05-21T01:07:19;100727.91;;;13.23;51.57
50592;BME280;36548;50.506;30.834;2023-05-21T01:08:30;100717.20;;;13.08;52.02
50592;BME280;36548;50.506;30.834;2023-05-21T01:09:45;100714.75;;;13.18;52.05
50592;BME280;36548;50.506;30.834;2023-05-21T01:10:55;100726.47;;;13.04;52.09
50592;BME280;36548;50.506;30.834;2023-05-21T01:12:06;100724.09;;;13.00;52.33
50592;BME280;36548;50.506;30.834;2023-05-21T01:13:16;100726.33;;;12.93;52.47
50592;BME280;36548;50.506;30.834;2023-05-21T01:14:34;100722.67;;;12.94;52.78
50592;BME280;36548;50.506;30.834;2023-05-21T01:15:45;100732.73;;;12.77;52.87
50592;BME280;36548;50.506;30.834;2023-05-21T01:17:02;100715.34;;;12.96;52.84
50592;BME280;36548;50.506;30.834;2023-05-21T01:18:12;100724.91;;;12.87;52.54
50592;BME280;36548;50.506;30.834;2023-05-21T01:19:24;100723.49;;;12.82;52.92
50592;BME280;36548;50.506;30.834;2023-05-21T01:20:41;100724.55;;;12.79;53.16
50592;BME280;36548;50.506;30.834;2023-05-21T01:22:02;100712.67;;;12.69;53.29
50592;BME280;36548;50.506;30.834;2023-05-21T01:23:19;100718.06;;;12.69;53.52
50592;BME280;36548;50.506;30.834;2023-05-21T01:24:29;100715.08;;;12.59;53.56
50592;BME280;36548;50.506;30.834;2023-05-21T01:25:46;100712.00;;;12.65;53.68
50592;BME280;36548;50.506;30.834;2023-05-21T01:26:57;100715.13;;;12.44;53.85
50592;BME280;36548;50.506;30.834;2023-05-21T01:28:06;100715.91;;;12.47;53.92
50592;BME280;36548;50.506;30.834;2023-05-21T01:29:16;100706.45;;;12.54;53.68
50592;BME280;36548;50.506;30.834;2023-05-21T01:30:26;100716.50;;;12.37;54.18
50592;BME280;36548;50.506;30.834;2023-05-21T01:36:24;100702.98;;;12.52;53.73
50592;BME280;36548;50.506;30.834;2023-05-21T01:40:51;100710.52;;;12.74;53.14
50592;BME280;36548;50.506;30.834;2023-05-21T01:42:02;100715.96;;;12.59;53.45
50592;BME280;36548;50.506;30.834;2023-05-21T01:43:21;100709.69;;;12.59;53.70
50592;BME280;36548;50.506;30.834;2023-05-21T01:44:32;100714.19;;;12.31;54.06
50592;BME280;36548;50.506;30.834;2023-05-21T01:45:52;100711.31;;;12.34;54.42
50592;BME280;36548;50.506;30.834;2023-05-21T01:47:03;100719.39;;;12.20;54.41
50592;BME280;36548;50.506;30.834;2023-05-21T01:48:19;100707.74;;;12.34;54.43
50592;BME280;36548;50.506;30.834;2023-05-21T01:49:29;100713.64;;;12.11;54.53
50592;BME280;36548;50.506;30.834;2023-05-21T01:50:47;100699.23;;;12.13;54.86
50592;BME280;36548;50.506;30.834;2023-05-21T01:51:56;100711.15;;;12.08;54.74
50592;BME280;36548;50.506;30.834;2023-05-21T01:53:05;100708.25;;;12.11;54.75
50592;BME280;36548;50.506;30.834;2023-05-21T01:54:14;100712.09;;;11.93;55.08
50592;BME280;36548;50.506;30.834;2023-05-21T01:55:31;100701.92;;;12.13;54.96
50592;BME280;36548;50.506;30.834;2023-05-21T01:56:40;100711.35;;;12.05;54.79
50592;BME280;36548;50.506;30.834;2023-05-21T01:57:51;100701.06;;;11.98;55.01
50592;BME280;36548;50.506;30.834;2023-05-21T01:59:01;100706.44;;;11.98;54.90
50592;BME280;36548;50.506;30.834;2023-05-21T02:00:18;100704.53;;;12.00;55.05
50592;BME280;36548;50.506;30.834;2023-05-21T02:01:28;100708.96;;;12.01;54.91
50592;BME280;36548;50.506;30.834;2023-05-21T02:02:44;100704.61;;;12.13;54.67
50592;BME280;36548;50.506;30.834;2023-05-21T02:03:56;100704.64;;;11.98;54.74
50592;BME280;36548;50.506;30.834;2023-05-21T02:05:07;100703.23;;;11.91;54.93
50592;BME280;36548;50.506;30.834;2023-05-21T02:06:17;100711.41;;;11.89;54.95
50592;BME280;36548;50.506;30.834;2023-05-21T02:07:32;100709.03;;;11.99;54.95
50592;BME280;36548;50.506;30.834;2023-05-21T02:08:42;100713.24;;;11.89;55.01
50592;BME280;36548;50.506;30.834;2023-05-21T02:09:59;100705.92;;;11.91;55.27
50592;BME280;36548;50.506;30.834;2023-05-21T02:11:08;100710.75;;;11.86;55.02
50592;BME280;36548;50.506;30.834;2023-05-21T02:12:25;100704.13;;;11.91;55.07
50592;BME280;36548;50.506;30.834;2023-05-21T02:13:36;100713.32;;;11.73;55.46
50592;BME280;36548;50.506;30.834;2023-05-21T02:14:47;100710.45;;;11.90;55.16
50592;BME280;36548;50.506;30.834;2023-05-21T02:15:58;100718.83;;;11.86;54.91
50592;BME280;36548;50.506;30.834;2023-05-21T02:17:09;100717.09;;;11.85;54.96
50592;BME280;36548;50.506;30.834;2023-05-21T02:18:19;100712.50;;;12.01;54.99
50592;BME280;36548;50.506;30.834;2023-05-21T02:19:29;100712.09;;;11.93;54.49
50592;BME280;36548;50.506;30.834;2023-05-21T02:20:46;100713.94;;;12.07;54.65
50592;BME280;36548;50.506;30.834;2023-05-21T02:21:56;100717.09;;;11.85;54.70
50592;BME280;36548;50.506;30.834;2023-05-21T02:23:06;100724.32;;;11.99;54.62
50592;BME280;36548;50.506;30.834;2023-05-21T02:24:16;100711.55;;;12.02;54.30
50592;BME280;36548;50.506;30.834;2023-05-21T02:25:27;100712.88;;;11.95;54.49
50592;BME280;36548;50.506;30.834;2023-05-21T02:26:42;100711.73;;;12.14;54.36
50592;BME280;36548;50.506;30.834;2023-05-21T02:27:51;100713.36;;;12.02;54.52
50592;BME280;36548;50.506;30.834;2023-05-21T02:29:07;100712.38;;;12.17;54.24
50592;BME280;36548;50.506;30.834;2023-05-21T02:30:18;100722.97;;;12.06;54.29
50592;BME280;36548;50.506;30.834;2023-05-21T02:31:34;100718.09;;;11.98;54.65
50592;BME280;36548;50.506;30.834;2023-05-21T02:32:46;100725.91;;;11.72;55.12
50592;BME280;36548;50.506;30.834;2023-05-21T02:33:56;100718.70;;;11.58;55.56
50592;BME280;36548;50.506;30.834;2023-05-21T02:35:12;100718.80;;;11.57;55.94
50592;BME280;36548;50.506;30.834;2023-05-21T02:36:22;100721.02;;;11.65;55.71
50592;BME280;36548;50.506;30.834;2023-05-21T02:37:35;100722.23;;;11.59;55.60
50592;BME280;36548;50.506;30.834;2023-05-21T02:38:45;100718.89;;;11.55;55.61
50592;BME280;36548;50.506;30.834;2023-05-21T02:40:02;100716.99;;;11.72;55.71
50592;BME280;36548;50.506;30.834;2023-05-21T02:41:15;100723.98;;;11.60;55.46
50592;BME280;36548;50.506;30.834;2023-05-21T02:42:32;100725.62;;;11.63;55.60
50592;BME280;36548;50.506;30.834;2023-05-21T02:43:41;100720.39;;;11.45;55.79
50592;BME280;36548;50.506;30.834;2023-05-21T02:44:58;100716.70;;;11.62;55.68
50592;BME280;36548;50.506;30.834;2023-05-21T02:46:07;100717.84;;;11.58;55.46
50592;BME280;36548;50.506;30.834;2023-05-21T02:47:18;100724.92;;;11.59;55.42
50592;BME280;36548;50.506;30.834;2023-05-21T02:48:28;100716.40;;;11.52;55.65
50592;BME280;36548;50.506;30.834;2023-05-21T02:49:44;100723.02;;;11.61;55.67
50592;BME280;36548;50.506;30.834;2023-05-21T02:50:55;100721.78;;;11.67;55.18
50592;BME280;36548;50.506;30.834;2023-05-21T02:52:10;100718.04;;;11.69;55.49
50592;BME280;36548;50.506;30.834;2023-05-21T02:53:20;100713.42;;;11.57;55.41
50592;BME280;36548;50.506;30.834;2023-05-21T02:54:36;100707.58;;;11.65;55.42
50592;BME280;36548;50.506;30.834;2023-05-21T02:55:45;100714.47;;;11.54;55.58
50592;BME280;36548;50.506;30.834;2023-05-21T02:56:56;100711.22;;;11.78;54.93
50592;BME280;36548;50.506;30.834;2023-05-21T02:58:11;100708.04;;;11.71;55.11
50592;BME280;36548;50.506;30.834;2023-05-21T02:59:21;100714.80;;;11.79;55.07
50592;BME280;36548;50.506;30.834;2023-05-21T03:00:36;100717.28;;;11.82;55.08
50592;BME280;36548;50.506;30.834;2023-05-21T03:01:46;100718.34;;;11.65;55.15
50592;BME280;36548;50.506;30.834;2023-05-21T03:02:56;100720.23;;;11.77;54.96
50592;BME280;36548;50.506;30.834;2023-05-21T03:04:12;100727.45;;;11.76;55.04
50592;BME280;36548;50.506;30.834;2023-05-21T03:05:21;100733.59;;;11.64;55.11
50592;BME280;36548;50.506;30.834;2023-05-21T03:06:36;100728.41;;;11.75;55.10
50592;BME280;36548;50.506;30.834;2023-05-21T03:07:44;100723.72;;;11.79;54.79
50592;BME280;36548;50.506;30.834;2023-05-21T03:09:00;100722.17;;;11.75;54.99
50592;BME280;36548;50.506;30.834;2023-05-21T03:10:09;100725.72;;;11.75;55.04
50592;BME280;36548;50.506;30.834;2023-05-21T03:11:19;100721.87;;;11.51;55.36
50592;BME280;36548;50.506;30.834;2023-05-21T03:12:29;100722.92;;;11.77;54.73
50592;BME280;36548;50.506;30.834;2023-05-21T03:13:37;100715.55;;;11.81;54.66
50592;BME280;36548;50.506;30.834;2023-05-21T03:14:52;100705.77;;;12.08;54.57
50592;BME280;36548;50.506;30.834;2023-05-21T03:16:01;100715.75;;;12.21;54.21
50592;BME280;36548;50.506;30.834;2023-05-21T03:17:16;100715.06;;;12.32;53.54
50592;BME280;36548;50.506;30.834;2023-05-21T03:18:25;100725.42;;;12.38;53.25
50592;BME280;36548;50.506;30.834;2023-05-21T03:19:35;100727.20;;;12.24;53.32
50592;BME280;36548;50.506;30.834;2023-05-21T03:20:51;100717.66;;;12.33;53.44
50592;BME280;36548;50.506;30.834;2023-05-21T03:22:01;100715.34;;;12.27;53.53
50592;BME280;36548;50.506;30.834;2023-05-21T03:23:11;100732.06;;;12.47;53.25
50592;BME280;36548;50.506;30.834;2023-05-21T03:24:28;100715.39;;;12.54;52.81
50592;BME280;36548;50.506;30.834;2023-05-21T03:25:42;100730.33;;;12.31;53.05
50592;BME280;36548;50.506;30.834;2023-05-21T03:27:17;100716.71;;;12.61;52.43
50592;BME280;36548;50.506;30.834;2023-05-21T03:28:26;100734.76;;;12.47;52.59
50592;BME280;36548;50.506;30.834;2023-05-21T03:29:35;100721.25;;;12.61;52.55
50592;BME280;36548;50.506;30.834;2023-05-21T03:30:48;100732.38;;;12.69;51.95
50592;BME280;36548;50.506;30.834;2023-05-21T03:32:05;100726.44;;;12.91;51.76
50592;BME280;36548;50.506;30.834;2023-05-21T03:33:15;100726.25;;;13.07;51.98
50592;BME280;36548;50.506;30.834;2023-05-21T03:34:30;100729.11;;;13.19;50.87
50592;BME280;36548;50.506;30.834;2023-05-21T03:35:41;100733.03;;;13.00;51.28
50592;BME280;36548;50.506;30.834;2023-05-21T03:36:58;100719.63;;;13.26;50.66
50592;BME280;36548;50.506;30.834;2023-05-21T03:38:08;100732.22;;;13.25;50.59
50592;BME280;36548;50.506;30.834;2023-05-21T03:39:17;100728.06;;;13.34;49.99
50592;BME280;36548;50.506;30.834;2023-05-21T03:40:33;100728.55;;;13.92;50.67
50592;BME280;36548;50.506;30.834;2023-05-21T03:41:44;100736.09;;;14.00;48.87
50592;BME280;36548;50.506;30.834;2023-05-21T03:42:59;100721.61;;;14.64;49.40
50592;BME280;36548;50.506;30.834;2023-05-21T03:44:09;100730.23;;;14.93;48.29
50592;BME280;36548;50.506;30.834;2023-05-21T03:45:25;100725.54;;;15.55;46.09
50592;BME280;36548;50.506;30.834;2023-05-21T03:46:38;100716.45;;;15.56;44.91
50592;BME280;36548;50.506;30.834;2023-05-21T03:47:52;100735.25;;;15.46;44.42
50592;BME280;36548;50.506;30.834;2023-05-21T03:49:08;100727.04;;;15.71;44.36
50592;BME280;36548;50.506;30.834;2023-05-21T03:50:18;100734.17;;;15.60;44.52
50592;BME280;36548;50.506;30.834;2023-05-21T03:51:34;100730.17;;;15.89;44.21
50592;BME280;36548;50.506;30.834;2023-05-21T03:52:43;100740.08;;;15.77;43.65
50592;BME280;36548;50.506;30.834;2023-05-21T03:53:52;100731.66;;;15.46;44.31
50592;BME280;36548;50.506;30.834;2023-05-21T03:55:08;100735.83;;;15.39;44.67
50592;BME280;36548;50.506;30.834;2023-05-21T03:56:18;100729.44;;;15.40;44.51
50592;BME280;36548;50.506;30.834;2023-05-21T03:57:33;100736.80;;;15.38;44.82
50592;BME280;36548;50.506;30.834;2023-05-21T03:58:43;100729.77;;;14.75;45.73
50592;BME280;36548;50.506;30.834;2023-05-21T03:59:59;100735.28;;;15.22;46.23
50592;BME280;36548;50.506;30.834;2023-05-21T04:01:08;100734.82;;;15.28;45.38
50592;BME280;36548;50.506;30.834;2023-05-21T04:02:25;100725.16;;;15.48;45.07
50592;BME280;36548;50.506;30.834;2023-05-21T04:03:34;100735.19;;;14.99;45.74
50592;BME280;36548;50.506;30.834;2023-05-21T04:04:49;100720.14;;;15.20;46.12
50592;BME280;36548;50.506;30.834;2023-05-21T04:05:58;100723.91;;;15.41;46.45
50592;BME280;36548;50.506;30.834;2023-05-21T04:07:14;100719.18;;;15.79;45.39
50592;BME280;36548;50.506;30.834;2023-05-21T04:08:25;100722.55;;;15.82;44.80
50592;BME280;36548;50.506;30.834;2023-05-21T04:09:40;100725.14;;;15.95;43.46
50592;BME280;36548;50.506;30.834;2023-05-21T04:10:51;100721.87;;;15.67;44.35
50592;BME280;36548;50.506;30.834;2023-05-21T04:12:07;100719.47;;;16.10;44.39
50592;BME280;36548;50.506;30.834;2023-05-21T04:13:17;100721.05;;;16.24;43.60
50592;BME280;36548;50.506;30.834;2023-05-21T04:14:27;100724.48;;;16.48;43.47
50592;BME280;36548;50.506;30.834;2023-05-21T04:15:42;100719.09;;;16.81;43.13
50592;BME280;36548;50.506;30.834;2023-05-21T04:16:53;100720.09;;;16.91;42.82
50592;BME280;36548;50.506;30.834;2023-05-21T04:18:09;100716.38;;;17.25;41.99
50592;BME280;36548;50.506;30.834;2023-05-21T04:19:20;100722.27;;;17.30;41.13
50592;BME280;36548;50.506;30.834;2023-05-21T04:20:31;100716.23;;;17.26;40.90
50592;BME280;36548;50.506;30.834;2023-05-21T04:21:46;100714.70;;;17.54;41.43
50592;BME280;36548;50.506;30.834;2023-05-21T04:22:55;100716.10;;;17.49;40.39
50592;BME280;36548;50.506;30.834;2023-05-21T04:24:10;100713.64;;;17.67;40.37
50592;BME280;36548;50.506;30.834;2023-05-21T04:25:31;100712.24;;;17.72;41.05
50592;BME280;36548;50.506;30.834;2023-05-21T04:26:47;100716.58;;;17.96;39.82
50592;BME280;36548;50.506;30.834;2023-05-21T04:27:56;100717.20;;;17.88;39.61
50592;BME280;36548;50.506;30.834;2023-05-21T04:29:12;100717.48;;;17.85;40.12
50592;BME280;36548;50.506;30.834;2023-05-21T04:30:21;100714.16;;;17.82;39.76
50592;BME280;36548;50.506;30.834;2023-05-21T04:31:33;100718.69;;;17.93;40.10
50592;BME280;36548;50.506;30.834;2023-05-21T04:32:43;100715.59;;;18.07;39.88
50592;BME280;36548;50.506;30.834;2023-05-21T04:33:54;100717.67;;;18.25;40.07
50592;BME280;36548;50.506;30.834;2023-05-21T04:35:10;100716.31;;;18.50;39.06
50592;BME280;36548;50.506;30.834;2023-05-21T04:36:25;100715.61;;;18.48;38.72
50592;BME280;36548;50.506;30.834;2023-05-21T04:37:42;100719.08;;;18.69;38.66
50592;BME280;36548;50.506;30.834;2023-05-21T04:38:53;100713.45;;;18.51;38.14
50592;BME280;36548;50.506;30.834;2023-05-21T04:40:14;100716.93;;;18.63;38.70
50592;BME280;36548;50.506;30.834;2023-05-21T04:41:25;100714.91;;;18.65;38.83
50592;BME280;36548;50.506;30.834;2023-05-21T04:42:36;100711.66;;;18.81;39.03
50592;BME280;36548;50.506;30.834;2023-05-21T04:43:46;100706.63;;;18.86;37.48
50592;BME280;36548;50.506;30.834;2023-05-21T04:44:59;100707.70;;;18.95;38.27
50592;BME280;36548;50.506;30.834;2023-05-21T04:46:09;100711.56;;;19.02;37.48
50592;BME280;36548;50.506;30.834;2023-05-21T04:47:20;100706.12;;;19.02;38.11
50592;BME280;36548;50.506;30.834;2023-05-21T04:48:36;100708.27;;;19.28;37.85
50592;BME280;36548;50.506;30.834;2023-05-21T04:49:45;100699.38;;;19.26;37.49
50592;BME280;36548;50.506;30.834;2023-05-21T04:51:05;100695.92;;;19.44;37.68
50592;BME280;36548;50.506;30.834;2023-05-21T04:52:14;100696.77;;;19.44;37.12
50592;BME280;36548;50.506;30.834;2023-05-21T04:53:30;100696.05;;;19.52;36.58
50592;BME280;36548;50.506;30.834;2023-05-21T04:54:40;100699.08;;;19.29;36.77
50592;BME280;36548;50.506;30.834;2023-05-21T04:55:49;100705.67;;;19.07;37.18
50592;BME280;36548;50.506;30.834;2023-05-21T04:57:05;100692.77;;;19.38;37.77
50592;BME280;36548;50.506;30.834;2023-05-21T04:58:15;100695.34;;;19.40;36.94
50592;BME280;36548;50.506;30.834;2023-05-21T04:59:34;100703.94;;;19.45;36.76
50592;BME280;36548;50.506;30.834;2023-05-21T05:00:44;100707.36;;;19.47;36.96
50592;BME280;36548;50.506;30.834;2023-05-21T05:02:04;100702.75;;;19.67;36.82
50592;BME280;36548;50.506;30.834;2023-05-21T05:03:13;100703.44;;;19.69;37.09
50592;BME280;36548;50.506;30.834;2023-05-21T05:04:29;100698.66;;;20.01;36.83
50592;BME280;36548;50.506;30.834;2023-05-21T05:05:38;100698.77;;;20.09;36.85
50592;BME280;36548;50.506;30.834;2023-05-21T05:07:13;100701.55;;;20.27;36.09
50592;BME280;36548;50.506;30.834;2023-05-21T05:08:23;100700.92;;;20.33;36.07
50592;BME280;36548;50.506;30.834;2023-05-21T05:09:38;100702.63;;;20.62;35.91
50592;BME280;36548;50.506;30.834;2023-05-21T05:10:47;100701.06;;;20.59;35.42
50592;BME280;36548;50.506;30.834;2023-05-21T05:12:04;100693.12;;;20.66;34.92
50592;BME280;36548;50.506;30.834;2023-05-21T05:13:13;100696.08;;;20.55;35.12
50592;BME280;36548;50.506;30.834;2023-05-21T05:14:50;100693.28;;;20.65;35.26
50592;BME280;36548;50.506;30.834;2023-05-21T05:16:00;100696.58;;;20.68;35.65
50592;BME280;36548;50.506;30.834;2023-05-21T05:17:10;100693.79;;;20.50;35.21
50592;BME280;36548;50.506;30.834;2023-05-21T05:18:23;100698.64;;;20.56;35.47
50592;BME280;36548;50.506;30.834;2023-05-21T05:19:39;100692.84;;;20.69;35.03
50592;BME280;36548;50.506;30.834;2023-05-21T05:20:49;100698.55;;;20.48;35.51
50592;BME280;36548;50.506;30.834;2023-05-21T05:22:06;100693.65;;;20.80;35.52
50592;BME280;36548;50.506;30.834;2023-05-21T05:23:15;100693.33;;;20.83;34.74
50592;BME280;36548;50.506;30.834;2023-05-21T05:24:24;100697.31;;;20.88;35.13
50592;BME280;36548;50.506;30.834;2023-05-21T05:25:40;100684.81;;;21.22;35.09
50592;BME280;36548;50.506;30.834;2023-05-21T05:26:50;100695.80;;;21.30;34.79
50592;BME280;36548;50.506;30.834;2023-05-21T05:27:59;100692.32;;;21.46;34.52
50592;BME280;36548;50.506;30.834;2023-05-21T05:29:09;100695.86;;;21.56;33.56
50592;BME280;36548;50.506;30.834;2023-05-21T05:30:25;100684.49;;;21.69;33.45
50592;BME280;36548;50.506;30.834;2023-05-21T05:31:35;100687.83;;;21.55;33.49
50592;BME280;36548;50.506;30.834;2023-05-21T05:32:51;100687.94;;;21.71;33.56
50592;BME280;36548;50.506;30.834;2023-05-21T05:33:59;100693.52;;;21.43;33.47
50592;BME280;36548;50.506;30.834;2023-05-21T05:35:10;100702.50;;;21.36;33.97
50592;BME280;36548;50.506;30.834;2023-05-21T05:36:27;100705.45;;;21.60;34.04
50592;BME280;36548;50.506;30.834;2023-05-21T05:37:36;100704.52;;;21.52;33.76
50592;BME280;36548;50.506;30.834;2023-05-21T05:38:52;100692.85;;;21.68;33.15
50592;BME280;36548;50.506;30.834;2023-05-21T05:40:00;100705.22;;;21.54;33.38
50592;BME280;36548;50.506;30.834;2023-05-21T05:41:18;100691.34;;;21.73;33.74
50592;BME280;36548;50.506;30.834;2023-05-21T05:42:28;100696.61;;;21.49;33.82
50592;BME280;36548;50.506;30.834;2023-05-21T05:43:39;100701.78;;;21.52;33.33
50592;BME280;36548;50.506;30.834;2023-05-21T05:45:15;100692.12;;;21.57;33.48
50592;BME280;36548;50.506;30.834;2023-05-21T05:46:25;100699.50;;;21.47;33.51
50592;BME280;36548;50.506;30.834;2023-05-21T05:47:41;100695.42;;;21.69;33.62
50592;BME280;36548;50.506;30.834;2023-05-21T05:48:51;100704.27;;;21.63;32.98
50592;BME280;36548;50.506;30.834;2023-05-21T05:50:00;100701.16;;;21.58;33.32
50592;BME280;36548;50.506;30.834;2023-05-21T05:51:15;100699.16;;;21.68;33.51
50592;BME280;36548;50.506;30.834;2023-05-21T05:52:24;100694.13;;;21.55;33.27
50592;BME280;36548;50.506;30.834;2023-05-21T05:53:39;100697.38;;;21.15;33.83
50592;BME280;36548;50.506;30.834;2023-05-21T05:54:49;100694.33;;;21.18;34.23
50592;BME280;36548;50.506;30.834;2023-05-21T05:56:06;100704.91;;;21.39;33.96
50592;BME280;36548;50.506;30.834;2023-05-21T05:57:15;100698.20;;;21.33;33.83
50592;BME280;36548;50.506;30.834;2023-05-21T05:58:31;100683.38;;;21.36;33.91
50592;BME280;36548;50.506;30.834;2023-05-21T05:59:42;100699.08;;;21.34;34.25
50592;BME280;36548;50.506;30.834;2023-05-21T06:00:57;100693.72;;;21.50;34.08
50592;BME280;36548;50.506;30.834;2023-05-21T06:02:08;100705.84;;;21.48;34.02
50592;BME280;36548;50.506;30.834;2023-05-21T06:03:25;100695.74;;;21.04;34.37
50592;BME280;36548;50.506;30.834;2023-05-21T06:04:34;100691.92;;;21.15;34.45
50592;BME280;36548;50.506;30.834;2023-05-21T06:05:50;100691.58;;;21.36;34.13
50592;BME280;36548;50.506;30.834;2023-05-21T06:07:00;100702.50;;;21.36;34.41
50592;BME280;36548;50.506;30.834;2023-05-21T06:08:17;100697.97;;;21.26;34.08
50592;BME280;36548;50.506;30.834;2023-05-21T06:09:26;100709.39;;;21.04;34.29
50592;BME280;36548;50.506;30.834;2023-05-21T06:10:37;100709.06;;;21.07;34.23
50592;BME280;36548;50.506;30.834;2023-05-21T06:11:46;100704.56;;;20.98;34.31
50592;BME280;36548;50.506;30.834;2023-05-21T06:13:01;100697.54;;;21.13;34.70
50592;BME280;36548;50.506;30.834;2023-05-21T06:14:10;100695.34;;;21.17;34.87
50592;BME280;36548;50.506;30.834;2023-05-21T06:15:26;100695.24;;;21.26;34.60
50592;BME280;36548;50.506;30.834;2023-05-21T06:16:35;100698.07;;;20.81;35.05
50592;BME280;36548;50.506;30.834;2023-05-21T06:17:51;100704.41;;;21.17;34.54
50592;BME280;36548;50.506;30.834;2023-05-21T06:19:01;100697.45;;;21.23;34.30
50592;BME280;36548;50.506;30.834;2023-05-21T06:20:17;100689.23;;;21.41;34.12
50592;BME280;36548;50.506;30.834;2023-05-21T06:21:27;100704.65;;;21.06;34.63
50592;BME280;36548;50.506;30.834;2023-05-21T06:22:42;100691.44;;;21.19;34.37